Hlavní strana
METAR-TAF:

METAR-TAF

Letiště :

Tokušima, Japonsko

zeměpisná šířka: 34-08N, zeměpisná délka: 134-37E, výška: 8 m

Aktuální stav počasí

Zpráva byla vytvořena před 50 minutami, v 09:00 UTC
Jihojihovýchodní vítr 4 kt
Teplota 11°C
Vlhkost vzduchu 62%
Tlak 1023 hPa
Viditelnost 10 km a více
Skoro jasno ve výšce 3000 ft
Polojasno

METAR: RJOS 240900Z 15004KT 9999 FEW030 SCT/// 11/04 Q1023

Čas: 18:50 (09:50 UTC)


TAF: chybějící

Stav a předpovědi počasí z více než 4 000 letišť (zprávy METAR a TAF).

Červené a žluté tečky na mapě představují dostupné meteorologické stanice.

Když kurzor umístíte na tečku, zobrazí se název stanice.

Pak kliknutím zobrazíte stav a předpověď počasí.

Chcete-li změnit mapu, kliknutím na zelené tlačítko se znaménkem +mapu přiblížíte, kliknutím na zelené tlačítko se znaménkem – mapu oddálíte a kliknutím na zelené šipky přejdete na sousední mapy.


METAR-TAF: